EXS45VK LPFR-EGCC
Flight info
| Callsign | EXS45VK |
|---|---|
| Flight time | N/A |
| Altitude | 40000 |
| Route | ELVAR DCT BABOV DCT BARDI DCT ZMR DCT NUBLO DCT RONSI DCT DELOG DCT NOZHU/N0457F390 DCT SHIRI DCT TOJAQ DCT EPACE DCT ACCOP DCT MOCQO P16 AXCIS |
| Aircraft | A332/H-SDE3GHIJ2J3J5M1RVWXY/LB2D1 |
Departure
| Time | 2026-05-06 16:16 |
|---|---|
| Airport | Faro - Gago Coutinho International Airport (LPFR) |
Arrival
| Time | N/A |
|---|---|
| Airport | Manchester Airport (EGCC) |
| Time | Latitude | Longitude | Altitude | Speed | Heading |
|---|---|---|---|---|---|
| 2026-05-06 16:01 | 37.01895 | -7.96698 | 24 ft | 0 kts | 8° |
| 2026-05-06 16:06 | 37.01878 | -7.96701 | 24 ft | 4 kts | 9° |
| 2026-05-06 16:06 | 37.01851 | -7.96707 | 24 ft | 4 kts | 9° |
| 2026-05-06 16:06 | 37.01837 | -7.96709 | 24 ft | 4 kts | 17° |
| 2026-05-06 16:06 | 37.01819 | -7.96726 | 24 ft | 4 kts | 78° |
| 2026-05-06 16:07 | 37.01819 | -7.96757 | 24 ft | 2 kts | 100° |
| 2026-05-06 16:07 | 37.01820 | -7.96764 | 24 ft | 0 kts | 100° |
| 2026-05-06 16:10 | 37.01817 | -7.96744 | 24 ft | 4 kts | 100° |
| 2026-05-06 16:10 | 37.01810 | -7.96696 | 26 ft | 7 kts | 100° |
| 2026-05-06 16:10 | 37.01801 | -7.96640 | 24 ft | 5 kts | 101° |
| 2026-05-06 16:11 | 37.01799 | -7.96626 | 24 ft | 2 kts | 101° |
| 2026-05-06 16:11 | 37.01798 | -7.96620 | 24 ft | 2 kts | 101° |
| 2026-05-06 16:11 | 37.01797 | -7.96610 | 24 ft | 0 kts | 100° |
| 2026-05-06 16:14 | 37.01796 | -7.96603 | 24 ft | 2 kts | 101° |
| 2026-05-06 16:14 | 37.01790 | -7.96571 | 26 ft | 5 kts | 102° |
| 2026-05-06 16:14 | 37.01749 | -7.96535 | 26 ft | 17 kts | 171° |
| 2026-05-06 16:14 | 37.01623 | -7.96487 | 28 ft | 21 kts | 118° |
| 2026-05-06 16:15 | 37.01585 | -7.96292 | 24 ft | 25 kts | 101° |
| 2026-05-06 16:15 | 37.01553 | -7.96072 | 27 ft | 27 kts | 100° |
| 2026-05-06 16:15 | 37.01516 | -7.95872 | 23 ft | 19 kts | 126° |
| 2026-05-06 16:15 | 37.01396 | -7.95855 | 25 ft | 18 kts | 190° |
| 2026-05-06 16:16 | 37.01350 | -7.95907 | 30 ft | 9 kts | 263° |
| 2026-05-06 16:16 | 37.01388 | -7.96193 | 30 ft | 73 kts | 280° |
| 2026-05-06 16:16 | 37.01532 | -7.97203 | 106 ft | 155 kts | 279° |
| 2026-05-06 16:16 | 37.01719 | -7.98420 | 1530 ft | 139 kts | 279° |
| 2026-05-06 16:17 | 37.01938 | -7.99821 | 2153 ft | 194 kts | 279° |
| 2026-05-06 16:17 | 37.02199 | -8.01608 | 3182 ft | 217 kts | 281° |
| 2026-05-06 16:17 | 37.02471 | -8.03462 | 4723 ft | 215 kts | 282° |
| 2026-05-06 16:17 | 37.02742 | -8.05317 | 6118 ft | 219 kts | 282° |
| 2026-05-06 16:18 | 37.03019 | -8.07198 | 7103 ft | 223 kts | 281° |
| 2026-05-06 16:18 | 37.03316 | -8.09148 | 7898 ft | 233 kts | 284° |
| 2026-05-06 16:18 | 37.03936 | -8.11042 | 8772 ft | 242 kts | 300° |
| 2026-05-06 16:18 | 37.05005 | -8.12804 | 9223 ft | 268 kts | 319° |
| 2026-05-06 16:19 | 37.06704 | -8.13869 | 9854 ft | 284 kts | 351° |
| 2026-05-06 16:19 | 37.08733 | -8.13932 | 10427 ft | 304 kts | 2° |
| 2026-05-06 16:19 | 37.10927 | -8.13680 | 10797 ft | 329 kts | 5° |
| 2026-05-06 16:19 | 37.13266 | -8.13342 | 11309 ft | 346 kts | 6° |
| 2026-05-06 16:20 | 37.15679 | -8.12992 | 12083 ft | 353 kts | 5° |
| 2026-05-06 16:20 | 37.18146 | -8.12641 | 12913 ft | 359 kts | 5° |
| 2026-05-06 16:20 | 37.20653 | -8.12291 | 13604 ft | 369 kts | 5° |
| 2026-05-06 16:20 | 37.23253 | -8.11932 | 14133 ft | 382 kts | 5° |
| 2026-05-06 16:21 | 37.25917 | -8.11564 | 14836 ft | 389 kts | 5° |
| 2026-05-06 16:21 | 37.28622 | -8.11190 | 15597 ft | 393 kts | 5° |
| 2026-05-06 16:21 | 37.31359 | -8.10813 | 16344 ft | 397 kts | 4° |
| 2026-05-06 16:21 | 37.34125 | -8.10431 | 17047 ft | 402 kts | 4° |
| 2026-05-06 16:22 | 37.36927 | -8.10044 | 17743 ft | 407 kts | 4° |
| 2026-05-06 16:22 | 37.39758 | -8.09654 | 18395 ft | 412 kts | 4° |
| 2026-05-06 16:22 | 37.42621 | -8.09259 | 19043 ft | 416 kts | 4° |
| 2026-05-06 16:22 | 37.45514 | -8.08860 | 19652 ft | 420 kts | 4° |
| 2026-05-06 16:23 | 37.48443 | -8.08456 | 20240 ft | 426 kts | 4° |
| 2026-05-06 16:23 | 37.51400 | -8.08048 | 20793 ft | 430 kts | 4° |
| 2026-05-06 16:23 | 37.54390 | -8.07634 | 21357 ft | 434 kts | 3° |
| 2026-05-06 16:23 | 37.57412 | -8.07215 | 21893 ft | 438 kts | 4° |
| 2026-05-06 16:24 | 37.60457 | -8.06792 | 22441 ft | 442 kts | 4° |
| 2026-05-06 16:24 | 37.63487 | -8.06371 | 22944 ft | 446 kts | 4° |
| 2026-05-06 16:24 | 37.66581 | -8.05940 | 23419 ft | 450 kts | 3° |
| 2026-05-06 16:24 | 37.69745 | -8.05501 | 23916 ft | 454 kts | 3° |
| 2026-05-06 16:25 | 37.72856 | -8.05068 | 24393 ft | 457 kts | 3° |
| 2026-05-06 16:25 | 37.76034 | -8.04626 | 24868 ft | 461 kts | 3° |
| 2026-05-06 16:25 | 37.79227 | -8.04182 | 25313 ft | 465 kts | 3° |
| 2026-05-06 16:25 | 37.82465 | -8.03730 | 25760 ft | 468 kts | 3° |
| 2026-05-06 16:26 | 37.85720 | -8.03275 | 26200 ft | 472 kts | 3° |
| 2026-05-06 16:26 | 37.88995 | -8.02818 | 26627 ft | 476 kts | 3° |
| 2026-05-06 16:26 | 37.92299 | -8.02356 | 27049 ft | 479 kts | 3° |
| 2026-05-06 16:26 | 37.95627 | -8.01890 | 27448 ft | 483 kts | 3° |
| 2026-05-06 16:27 | 37.98968 | -8.01422 | 27875 ft | 486 kts | 3° |
| 2026-05-06 16:27 | 38.02350 | -8.00947 | 28263 ft | 490 kts | 2° |
| 2026-05-06 16:27 | 38.05744 | -8.00471 | 28674 ft | 493 kts | 2° |
| 2026-05-06 16:27 | 38.09163 | -7.99990 | 29052 ft | 496 kts | 2° |
| 2026-05-06 16:28 | 38.12606 | -7.99507 | 29419 ft | 500 kts | 2° |
| 2026-05-06 16:28 | 38.16084 | -7.99018 | 29790 ft | 503 kts | 2° |
| 2026-05-06 16:28 | 38.19570 | -7.98527 | 30148 ft | 505 kts | 2° |
| 2026-05-06 16:28 | 38.23077 | -7.98031 | 30488 ft | 509 kts | 2° |
| 2026-05-06 16:29 | 38.26603 | -7.97532 | 30897 ft | 509 kts | 2° |
| 2026-05-06 16:29 | 38.30116 | -7.97034 | 31465 ft | 506 kts | 2° |
| 2026-05-06 16:29 | 38.33606 | -7.96539 | 32006 ft | 504 kts | 2° |
| 2026-05-06 16:29 | 38.37083 | -7.96046 | 32499 ft | 502 kts | 2° |
| 2026-05-06 16:30 | 38.40554 | -7.95554 | 32979 ft | 500 kts | 2° |
| 2026-05-06 16:30 | 38.42844 | -7.95229 | 33289 ft | 500 kts | 2° |
| 2026-05-06 16:30 | 38.47462 | -7.94574 | 33889 ft | 498 kts | 2° |
| 2026-05-06 16:30 | 38.50907 | -7.94084 | 34336 ft | 497 kts | 2° |
| 2026-05-06 16:31 | 38.54336 | -7.93596 | 34749 ft | 496 kts | 2° |
| 2026-05-06 16:31 | 38.57767 | -7.93107 | 35164 ft | 494 kts | 2° |
| 2026-05-06 16:31 | 38.61179 | -7.92534 | 35547 ft | 496 kts | 7° |
| 2026-05-06 16:31 | 38.64527 | -7.91390 | 35888 ft | 501 kts | 17° |
| 2026-05-06 16:32 | 38.67686 | -7.89478 | 36213 ft | 506 kts | 28° |
| 2026-05-06 16:32 | 38.70503 | -7.86854 | 36516 ft | 510 kts | 39° |
| 2026-05-06 16:32 | 38.73159 | -7.83811 | 36850 ft | 510 kts | 41° |
| 2026-05-06 16:32 | 38.75714 | -7.80682 | 37233 ft | 508 kts | 42° |
| 2026-05-06 16:33 | 38.78229 | -7.77505 | 37664 ft | 505 kts | 43° |
| 2026-05-06 16:33 | 38.80720 | -7.74329 | 37997 ft | 504 kts | 43° |
| 2026-05-06 16:33 | 38.83205 | -7.71166 | 38299 ft | 504 kts | 43° |
| 2026-05-06 16:34 | 38.88194 | -7.64866 | 38880 ft | 503 kts | 42° |
| 2026-05-06 16:34 | 38.90699 | -7.61720 | 39116 ft | 504 kts | 42° |
| 2026-05-06 16:34 | 38.93203 | -7.58581 | 39332 ft | 504 kts | 42° |
| 2026-05-06 16:34 | 38.95717 | -7.55431 | 39599 ft | 504 kts | 42° |
| 2026-05-06 16:35 | 38.98230 | -7.52279 | 39839 ft | 504 kts | 42° |
| 2026-05-06 16:35 | 39.03264 | -7.45955 | 39898 ft | 507 kts | 42° |
| 2026-05-06 16:36 | 39.08306 | -7.39606 | 39896 ft | 507 kts | 42° |
| 2026-05-06 16:36 | 39.13342 | -7.33247 | 39896 ft | 507 kts | 42° |
| 2026-05-06 16:37 | 39.18376 | -7.26877 | 39897 ft | 507 kts | 42° |
| 2026-05-06 16:37 | 39.23985 | -7.21536 | 39897 ft | 499 kts | 23° |
| 2026-05-06 16:38 | 39.30237 | -7.17858 | 39896 ft | 497 kts | 19° |
| 2026-05-06 16:38 | 39.36638 | -7.14481 | 39897 ft | 496 kts | 18° |
| 2026-05-06 16:39 | 39.43040 | -7.11154 | 39897 ft | 496 kts | 18° |
| 2026-05-06 16:39 | 39.49456 | -7.07781 | 39906 ft | 497 kts | 19° |
| 2026-05-06 16:40 | 39.55853 | -7.04384 | 39905 ft | 496 kts | 19° |
| 2026-05-06 16:40 | 39.62248 | -7.00973 | 39908 ft | 497 kts | 19° |
| 2026-05-06 16:41 | 39.68635 | -6.97559 | 39905 ft | 497 kts | 19° |
| 2026-05-06 16:41 | 39.74988 | -6.94160 | 39907 ft | 497 kts | 19° |
| 2026-05-06 16:42 | 39.81386 | -6.90728 | 39914 ft | 496 kts | 19° |
| 2026-05-06 16:42 | 39.87715 | -6.87102 | 39922 ft | 500 kts | 26° |
| 2026-05-06 16:43 | 39.93732 | -6.82547 | 39925 ft | 501 kts | 28° |
| 2026-05-06 16:43 | 39.99687 | -6.77795 | 39914 ft | 502 kts | 29° |
| 2026-05-06 16:44 | 40.05620 | -6.73004 | 39917 ft | 501 kts | 29° |
| 2026-05-06 16:44 | 40.11544 | -6.68226 | 39913 ft | 500 kts | 29° |
| 2026-05-06 16:45 | 40.17464 | -6.63455 | 39914 ft | 500 kts | 29° |
| 2026-05-06 16:45 | 40.23376 | -6.58683 | 39924 ft | 500 kts | 29° |
| 2026-05-06 16:46 | 40.29298 | -6.53893 | 39924 ft | 500 kts | 29° |
| 2026-05-06 16:46 | 40.35215 | -6.49100 | 39924 ft | 500 kts | 29° |
| 2026-05-06 16:47 | 40.41098 | -6.44325 | 39925 ft | 500 kts | 29° |
| 2026-05-06 16:47 | 40.47006 | -6.39517 | 39935 ft | 500 kts | 29° |
| 2026-05-06 16:48 | 40.52925 | -6.34690 | 39935 ft | 500 kts | 29° |
| 2026-05-06 16:48 | 40.58841 | -6.29893 | 39936 ft | 499 kts | 27° |
| 2026-05-06 16:49 | 40.64922 | -6.25537 | 39934 ft | 497 kts | 24° |
| 2026-05-06 16:49 | 40.71087 | -6.21372 | 39934 ft | 497 kts | 24° |
| 2026-05-06 16:50 | 40.76190 | -6.17904 | 39935 ft | 497 kts | 24° |
| 2026-05-06 16:50 | 40.82330 | -6.13676 | 39936 ft | 497 kts | 25° |
| 2026-05-06 16:51 | 40.88448 | -6.09427 | 39933 ft | 496 kts | 25° |
| 2026-05-06 16:51 | 40.94551 | -6.05170 | 39935 ft | 496 kts | 25° |
| 2026-05-06 16:52 | 41.00649 | -6.00910 | 39943 ft | 495 kts | 25° |
| 2026-05-06 16:52 | 41.06747 | -5.96642 | 39943 ft | 495 kts | 25° |
| 2026-05-06 16:53 | 41.12841 | -5.92371 | 39943 ft | 496 kts | 25° |
| 2026-05-06 16:53 | 41.18931 | -5.88093 | 39944 ft | 495 kts | 25° |
| 2026-05-06 16:54 | 41.25014 | -5.83808 | 39943 ft | 494 kts | 25° |
| 2026-05-06 16:54 | 41.31092 | -5.79520 | 39943 ft | 494 kts | 25° |
| 2026-05-06 16:55 | 41.37157 | -5.75234 | 39943 ft | 494 kts | 25° |
| 2026-05-06 16:55 | 41.43215 | -5.70939 | 39942 ft | 493 kts | 25° |
| 2026-05-06 16:56 | 41.49233 | -5.66670 | 39951 ft | 493 kts | 25° |
| 2026-05-06 16:56 | 41.55431 | -5.62661 | 39947 ft | 491 kts | 21° |
| 2026-05-06 16:57 | 41.61654 | -5.59082 | 39951 ft | 490 kts | 20° |
| 2026-05-06 16:57 | 41.67944 | -5.55542 | 39954 ft | 490 kts | 20° |
| 2026-05-06 16:58 | 41.74232 | -5.52005 | 39952 ft | 490 kts | 20° |
| 2026-05-06 16:58 | 41.80510 | -5.48456 | 39956 ft | 490 kts | 20° |
| 2026-05-06 16:59 | 41.86779 | -5.44896 | 39949 ft | 489 kts | 20° |
| 2026-05-06 16:59 | 41.93038 | -5.41333 | 39952 ft | 490 kts | 20° |
| 2026-05-06 17:00 | 41.99310 | -5.37757 | 39952 ft | 490 kts | 20° |
| 2026-05-06 17:00 | 42.05582 | -5.34174 | 39955 ft | 489 kts | 20° |
| 2026-05-06 17:01 | 42.11840 | -5.30590 | 39955 ft | 488 kts | 20° |
| 2026-05-06 17:01 | 42.18096 | -5.27001 | 39955 ft | 488 kts | 20° |
| 2026-05-06 17:02 | 42.24344 | -5.23409 | 39954 ft | 488 kts | 20° |
| 2026-05-06 17:02 | 42.30587 | -5.19809 | 39952 ft | 488 kts | 20° |
| 2026-05-06 17:03 | 42.36829 | -5.16204 | 39945 ft | 488 kts | 20° |
| 2026-05-06 17:03 | 42.43034 | -5.12615 | 39949 ft | 488 kts | 20° |
| 2026-05-06 17:04 | 42.49281 | -5.08990 | 39950 ft | 488 kts | 20° |
| 2026-05-06 17:04 | 42.55515 | -5.05366 | 39951 ft | 487 kts | 20° |
| 2026-05-06 17:05 | 42.61749 | -5.01733 | 39958 ft | 488 kts | 20° |
| 2026-05-06 17:05 | 42.67992 | -4.98087 | 39962 ft | 488 kts | 20° |
| 2026-05-06 17:06 | 42.74225 | -4.94438 | 39958 ft | 488 kts | 20° |
| 2026-05-06 17:06 | 42.80456 | -4.90786 | 39965 ft | 487 kts | 20° |
| 2026-05-06 17:07 | 42.86688 | -4.87123 | 39978 ft | 488 kts | 20° |
| 2026-05-06 17:07 | 42.92913 | -4.83455 | 39980 ft | 487 kts | 20° |
| 2026-05-06 17:08 | 42.99137 | -4.79780 | 39982 ft | 487 kts | 21° |
| 2026-05-06 17:08 | 43.05355 | -4.76096 | 39982 ft | 487 kts | 20° |
| 2026-05-06 17:09 | 43.11568 | -4.72410 | 39988 ft | 487 kts | 21° |
| 2026-05-06 17:09 | 43.17735 | -4.68745 | 39991 ft | 486 kts | 21° |
| 2026-05-06 17:10 | 43.23934 | -4.65056 | 40001 ft | 485 kts | 20° |
| 2026-05-06 17:10 | 43.30134 | -4.61357 | 39998 ft | 486 kts | 21° |
| 2026-05-06 17:11 | 43.36323 | -4.57650 | 40001 ft | 485 kts | 21° |
| 2026-05-06 17:11 | 43.42504 | -4.53940 | 40000 ft | 485 kts | 21° |
| 2026-05-06 17:12 | 43.48685 | -4.50224 | 40009 ft | 485 kts | 21° |
| 2026-05-06 17:12 | 43.54870 | -4.46497 | 40008 ft | 484 kts | 21° |
| 2026-05-06 17:13 | 43.61004 | -4.42793 | 40014 ft | 484 kts | 21° |
| 2026-05-06 17:13 | 43.67178 | -4.39056 | 40017 ft | 484 kts | 21° |
| 2026-05-06 17:14 | 43.73344 | -4.35315 | 40017 ft | 484 kts | 21° |
| 2026-05-06 17:14 | 43.79503 | -4.31570 | 40017 ft | 484 kts | 21° |
| 2026-05-06 17:15 | 43.85663 | -4.27817 | 40017 ft | 483 kts | 21° |
| 2026-05-06 17:15 | 43.91818 | -4.24058 | 40017 ft | 483 kts | 21° |
| 2026-05-06 17:16 | 43.97975 | -4.20289 | 40017 ft | 483 kts | 21° |
| 2026-05-06 17:16 | 44.04119 | -4.16520 | 40017 ft | 483 kts | 21° |
| 2026-05-06 17:17 | 44.10265 | -4.12741 | 40016 ft | 483 kts | 21° |
| 2026-05-06 17:17 | 44.16407 | -4.08956 | 40018 ft | 483 kts | 21° |
| 2026-05-06 17:18 | 44.22544 | -4.05165 | 40017 ft | 483 kts | 21° |
| 2026-05-06 17:18 | 44.28685 | -4.01367 | 40017 ft | 482 kts | 20° |
| 2026-05-06 17:19 | 44.35052 | -3.98927 | 40017 ft | 476 kts | 3° |
| 2026-05-06 17:19 | 44.41648 | -3.98319 | 40018 ft | 475 kts | 360° |
| 2026-05-06 17:20 | 44.48252 | -3.98076 | 40017 ft | 475 kts | 359° |
| 2026-05-06 17:20 | 44.54857 | -3.97886 | 40017 ft | 475 kts | 359° |
| 2026-05-06 17:21 | 44.61462 | -3.97665 | 40018 ft | 475 kts | 359° |
| 2026-05-06 17:21 | 44.68072 | -3.97419 | 40017 ft | 475 kts | 359° |
| 2026-05-06 17:22 | 44.74682 | -3.97165 | 40010 ft | 475 kts | 359° |
| 2026-05-06 17:22 | 44.81291 | -3.96911 | 40008 ft | 475 kts | 359° |
| 2026-05-06 17:23 | 44.87862 | -3.96659 | 40009 ft | 475 kts | 359° |
| 2026-05-06 17:23 | 44.94469 | -3.96406 | 40008 ft | 475 kts | 359° |
| 2026-05-06 17:24 | 45.01075 | -3.96152 | 40008 ft | 475 kts | 359° |
| 2026-05-06 17:24 | 45.07678 | -3.95898 | 40008 ft | 474 kts | 359° |
| 2026-05-06 17:25 | 45.14274 | -3.95643 | 40008 ft | 474 kts | 359° |
| 2026-05-06 17:25 | 45.20872 | -3.95388 | 40008 ft | 474 kts | 360° |
| 2026-05-06 17:26 | 45.27469 | -3.95132 | 40009 ft | 474 kts | 359° |
| 2026-05-06 17:26 | 45.34067 | -3.94875 | 40009 ft | 474 kts | 360° |
| 2026-05-06 17:27 | 45.40655 | -3.94618 | 39999 ft | 474 kts | 360° |
| 2026-05-06 17:27 | 45.47252 | -3.94360 | 39996 ft | 474 kts | 360° |
| 2026-05-06 17:28 | 45.53845 | -3.94102 | 40001 ft | 473 kts | 360° |
| 2026-05-06 17:28 | 45.60388 | -3.93843 | 40001 ft | 473 kts | 360° |
| 2026-05-06 17:29 | 45.67010 | -3.93582 | 39997 ft | 473 kts | 360° |
| 2026-05-06 17:29 | 45.73545 | -3.93325 | 39998 ft | 473 kts | 360° |
| 2026-05-06 17:30 | 45.80127 | -3.93067 | 39999 ft | 473 kts | 360° |
| 2026-05-06 17:30 | 45.86700 | -3.92805 | 39997 ft | 473 kts | 360° |
| 2026-05-06 17:31 | 45.93274 | -3.92543 | 39988 ft | 472 kts | 360° |
| 2026-05-06 17:31 | 45.99841 | -3.92283 | 39990 ft | 472 kts | 360° |
| 2026-05-06 17:32 | 46.06409 | -3.92018 | 39991 ft | 472 kts | 360° |
| 2026-05-06 17:32 | 46.12987 | -3.91752 | 39993 ft | 473 kts | 360° |
| 2026-05-06 17:33 | 46.19564 | -3.91487 | 39990 ft | 473 kts | 360° |
| 2026-05-06 17:33 | 46.26147 | -3.91224 | 39984 ft | 473 kts | 360° |
| 2026-05-06 17:34 | 46.32719 | -3.90959 | 39981 ft | 473 kts | 360° |
| 2026-05-06 17:34 | 46.39294 | -3.90694 | 39977 ft | 473 kts | 360° |
| 2026-05-06 17:35 | 46.45829 | -3.90428 | 39980 ft | 473 kts | 360° |
| 2026-05-06 17:35 | 46.52450 | -3.90160 | 39986 ft | 473 kts | 360° |
| 2026-05-06 17:36 | 46.62270 | -3.89761 | 39981 ft | 473 kts | 360° |
| 2026-05-06 17:36 | 46.68852 | -3.89492 | 39982 ft | 472 kts | 360° |
| 2026-05-06 17:37 | 46.75413 | -3.89225 | 39979 ft | 473 kts | 0° |
| 2026-05-06 17:37 | 46.81995 | -3.88952 | 39981 ft | 473 kts | 0° |
| 2026-05-06 17:38 | 46.87466 | -3.88726 | 39980 ft | 473 kts | 360° |
| 2026-05-06 17:38 | 46.94043 | -3.88454 | 39977 ft | 473 kts | 0° |
| 2026-05-06 17:39 | 47.00628 | -3.88182 | 39977 ft | 473 kts | 0° |
| 2026-05-06 17:39 | 47.07207 | -3.87908 | 39985 ft | 473 kts | 0° |
| 2026-05-06 17:40 | 47.13780 | -3.87636 | 39976 ft | 473 kts | 0° |
| 2026-05-06 17:40 | 47.20364 | -3.87364 | 39979 ft | 473 kts | 0° |
| 2026-05-06 17:41 | 47.26943 | -3.87086 | 39978 ft | 473 kts | 0° |
| 2026-05-06 17:41 | 47.33522 | -3.86811 | 39981 ft | 473 kts | 0° |
| 2026-05-06 17:42 | 47.40094 | -3.86540 | 39969 ft | 472 kts | 0° |
| 2026-05-06 17:42 | 47.46670 | -3.86267 | 39964 ft | 473 kts | 0° |
| 2026-05-06 17:43 | 47.53246 | -3.85989 | 39977 ft | 472 kts | 0° |
| 2026-05-06 17:43 | 47.59782 | -3.85707 | 39965 ft | 472 kts | 0° |
| 2026-05-06 17:44 | 47.66346 | -3.85427 | 39976 ft | 472 kts | 0° |
| 2026-05-06 17:44 | 47.72921 | -3.85151 | 39984 ft | 473 kts | 0° |
| 2026-05-06 17:45 | 47.79488 | -3.84870 | 39983 ft | 472 kts | 0° |
| 2026-05-06 17:45 | 47.86057 | -3.84590 | 39983 ft | 472 kts | 0° |
| 2026-05-06 17:46 | 47.92630 | -3.84309 | 39978 ft | 472 kts | 0° |
| 2026-05-06 17:46 | 47.99198 | -3.84028 | 39981 ft | 472 kts | 0° |
| 2026-05-06 17:47 | 48.05724 | -3.83750 | 39981 ft | 472 kts | 0° |
| 2026-05-06 17:47 | 48.12286 | -3.83467 | 39980 ft | 472 kts | 0° |
| 2026-05-06 17:48 | 48.18853 | -3.83181 | 39980 ft | 472 kts | 0° |
| 2026-05-06 17:48 | 48.25427 | -3.82893 | 39984 ft | 472 kts | 0° |
| 2026-05-06 17:49 | 48.31997 | -3.82606 | 39980 ft | 472 kts | 0° |
| 2026-05-06 17:49 | 48.38568 | -3.82319 | 39976 ft | 472 kts | 0° |
| 2026-05-06 17:50 | 48.45140 | -3.82032 | 39979 ft | 473 kts | 0° |
| 2026-05-06 17:50 | 48.51715 | -3.81745 | 39970 ft | 473 kts | 0° |
| 2026-05-06 17:51 | 48.58290 | -3.81455 | 39968 ft | 473 kts | 0° |
| 2026-05-06 17:51 | 48.64877 | -3.81161 | 39964 ft | 473 kts | 0° |
| 2026-05-06 17:52 | 48.71457 | -3.80872 | 39971 ft | 473 kts | 0° |
| 2026-05-06 17:52 | 48.77995 | -3.80585 | 39972 ft | 473 kts | 0° |
| 2026-05-06 17:53 | 48.84583 | -3.80294 | 39980 ft | 474 kts | 0° |
| 2026-05-06 17:53 | 48.91170 | -3.80001 | 39979 ft | 473 kts | 0° |
| 2026-05-06 17:54 | 48.97759 | -3.79704 | 39977 ft | 474 kts | 0° |
| 2026-05-06 17:54 | 49.04348 | -3.79411 | 39983 ft | 474 kts | 0° |
| 2026-05-06 17:55 | 49.10952 | -3.79115 | 39984 ft | 474 kts | 0° |
| 2026-05-06 17:55 | 49.17507 | -3.78820 | 39977 ft | 474 kts | 0° |
| 2026-05-06 17:56 | 49.24099 | -3.78522 | 39985 ft | 474 kts | 0° |
| 2026-05-06 17:56 | 49.30692 | -3.78224 | 39989 ft | 474 kts | 0° |
| 2026-05-06 17:57 | 49.37288 | -3.77925 | 39988 ft | 474 kts | 0° |
| 2026-05-06 17:57 | 49.43893 | -3.77627 | 39993 ft | 474 kts | 0° |
| 2026-05-06 17:58 | 49.50490 | -3.77324 | 39978 ft | 474 kts | 0° |
| 2026-05-06 17:58 | 49.57088 | -3.77021 | 39989 ft | 474 kts | 0° |
| 2026-05-06 17:59 | 49.63686 | -3.76720 | 39992 ft | 474 kts | 360° |
| 2026-05-06 17:59 | 49.70287 | -3.76387 | 39993 ft | 475 kts | 1° |
| 2026-05-06 18:00 | 49.76885 | -3.75696 | 39992 ft | 475 kts | 2° |
| 2026-05-06 18:00 | 49.83472 | -3.74858 | 39990 ft | 475 kts | 3° |
| 2026-05-06 18:01 | 49.90069 | -3.74034 | 39986 ft | 475 kts | 2° |
| 2026-05-06 18:01 | 49.96664 | -3.73240 | 39991 ft | 475 kts | 2° |
| 2026-05-06 18:02 | 50.03223 | -3.72463 | 39990 ft | 475 kts | 2° |
| 2026-05-06 18:02 | 50.09818 | -3.71679 | 39990 ft | 475 kts | 2° |
| 2026-05-06 18:03 | 50.16407 | -3.70892 | 39991 ft | 475 kts | 2° |
| 2026-05-06 18:03 | 50.23005 | -3.70103 | 39989 ft | 480 kts | 2° |
| 2026-05-06 18:04 | 50.29733 | -3.69298 | 39992 ft | 487 kts | 2° |
| 2026-05-06 18:04 | 50.36489 | -3.68481 | 39993 ft | 487 kts | 2° |
| 2026-05-06 18:05 | 50.43232 | -3.67594 | 39993 ft | 487 kts | 4° |
| 2026-05-06 18:05 | 50.49989 | -3.66352 | 39989 ft | 488 kts | 5° |
| 2026-05-06 18:06 | 50.56713 | -3.65012 | 39987 ft | 488 kts | 5° |
| 2026-05-06 18:06 | 50.63439 | -3.63693 | 39992 ft | 488 kts | 5° |
| 2026-05-06 18:07 | 50.70173 | -3.62397 | 39991 ft | 488 kts | 5° |
| 2026-05-06 18:07 | 50.76909 | -3.61106 | 39991 ft | 488 kts | 5° |
| 2026-05-06 18:08 | 50.83609 | -3.59819 | 39990 ft | 488 kts | 5° |
| 2026-05-06 18:08 | 50.90346 | -3.58521 | 39993 ft | 487 kts | 5° |
| 2026-05-06 18:09 | 50.97083 | -3.57217 | 39993 ft | 487 kts | 5° |
| 2026-05-06 18:09 | 51.03791 | -3.55914 | 39993 ft | 485 kts | 5° |
| 2026-05-06 18:10 | 51.10477 | -3.54613 | 39986 ft | 484 kts | 5° |
| 2026-05-06 18:10 | 51.17154 | -3.53305 | 39991 ft | 484 kts | 5° |
| 2026-05-06 18:11 | 51.23839 | -3.51999 | 39987 ft | 484 kts | 5° |
| 2026-05-06 18:11 | 51.30521 | -3.50689 | 39993 ft | 484 kts | 5° |
| 2026-05-06 18:12 | 51.37203 | -3.49375 | 39993 ft | 483 kts | 5° |
| 2026-05-06 18:12 | 51.43878 | -3.48058 | 39986 ft | 484 kts | 5° |
| 2026-05-06 18:13 | 51.50554 | -3.46734 | 39990 ft | 484 kts | 5° |
| 2026-05-06 18:13 | 51.57237 | -3.45406 | 39986 ft | 484 kts | 5° |
| 2026-05-06 18:14 | 51.60573 | -3.44743 | 39853 ft | 481 kts | 5° |
| 2026-05-06 18:14 | 51.63896 | -3.44081 | 39608 ft | 482 kts | 5° |
| 2026-05-06 18:14 | 51.67183 | -3.43425 | 39366 ft | 482 kts | 5° |
| 2026-05-06 18:14 | 51.70513 | -3.42757 | 39116 ft | 482 kts | 5° |
| 2026-05-06 18:15 | 51.73836 | -3.42091 | 38868 ft | 481 kts | 5° |
| 2026-05-06 18:15 | 51.77155 | -3.41424 | 38618 ft | 480 kts | 5° |
| 2026-05-06 18:15 | 51.80465 | -3.40759 | 38370 ft | 479 kts | 5° |
| 2026-05-06 18:15 | 51.83774 | -3.40094 | 38116 ft | 479 kts | 5° |
| 2026-05-06 18:16 | 51.87082 | -3.39427 | 37728 ft | 479 kts | 5° |
| 2026-05-06 18:16 | 51.90380 | -3.38762 | 37273 ft | 476 kts | 5° |
| 2026-05-06 18:16 | 51.93667 | -3.38153 | 36807 ft | 475 kts | 3° |
| 2026-05-06 18:16 | 51.96959 | -3.37767 | 36304 ft | 474 kts | 1° |
| 2026-05-06 18:17 | 52.00253 | -3.37520 | 35785 ft | 473 kts | 0° |
| 2026-05-06 18:17 | 52.03559 | -3.37332 | 35303 ft | 477 kts | 0° |
| 2026-05-06 18:17 | 52.06886 | -3.37153 | 34758 ft | 480 kts | 0° |
| 2026-05-06 18:17 | 52.10234 | -3.36960 | 34054 ft | 481 kts | 0° |
| 2026-05-06 18:18 | 52.13535 | -3.36752 | 33234 ft | 482 kts | 0° |
| 2026-05-06 18:18 | 52.16890 | -3.36524 | 32301 ft | 483 kts | 0° |
| 2026-05-06 18:18 | 52.20253 | -3.36284 | 31236 ft | 481 kts | 0° |
| 2026-05-06 18:18 | 52.23580 | -3.36040 | 30177 ft | 479 kts | 0° |
| 2026-05-06 18:19 | 52.26935 | -3.35794 | 29382 ft | 487 kts | 0° |
| 2026-05-06 18:19 | 52.30346 | -3.35545 | 28957 ft | 487 kts | 0° |
| 2026-05-06 18:19 | 52.33673 | -3.35299 | 28736 ft | 470 kts | 0° |
| 2026-05-06 18:19 | 52.36912 | -3.35052 | 28518 ft | 466 kts | 0° |
| 2026-05-06 18:20 | 52.40173 | -3.34806 | 28326 ft | 470 kts | 0° |
| 2026-05-06 18:20 | 52.43428 | -3.34560 | 28018 ft | 466 kts | 0° |
| 2026-05-06 18:20 | 52.46665 | -3.34321 | 27172 ft | 464 kts | 0° |
| 2026-05-06 18:20 | 52.49891 | -3.34087 | 26288 ft | 463 kts | 0° |
| 2026-05-06 18:21 | 52.53094 | -3.33855 | 25476 ft | 460 kts | 0° |
| 2026-05-06 18:21 | 52.56272 | -3.33623 | 24696 ft | 455 kts | 0° |
| 2026-05-06 18:21 | 52.59420 | -3.33395 | 23938 ft | 450 kts | 0° |
| 2026-05-06 18:21 | 52.62518 | -3.32849 | 23161 ft | 446 kts | 10° |
| 2026-05-06 18:22 | 52.65487 | -3.31482 | 22175 ft | 444 kts | 16° |
| 2026-05-06 18:22 | 52.68390 | -3.29852 | 21499 ft | 437 kts | 17° |
| 2026-05-06 18:22 | 52.71249 | -3.28182 | 20714 ft | 434 kts | 18° |
| 2026-05-06 18:22 | 52.74063 | -3.26517 | 20012 ft | 427 kts | 18° |
| 2026-05-06 18:23 | 52.76856 | -3.24854 | 19181 ft | 425 kts | 18° |
| 2026-05-06 18:23 | 52.79574 | -3.23229 | 18438 ft | 419 kts | 18° |
| 2026-05-06 18:23 | 52.82309 | -3.21591 | 17640 ft | 415 kts | 18° |
| 2026-05-06 18:23 | 52.85004 | -3.19975 | 16886 ft | 410 kts | 18° |
| 2026-05-06 18:24 | 52.87678 | -3.18381 | 16134 ft | 404 kts | 17° |
| 2026-05-06 18:24 | 52.90392 | -3.17375 | 15352 ft | 398 kts | 5° |
| 2026-05-06 18:24 | 52.93127 | -3.17035 | 14538 ft | 393 kts | 1° |
| 2026-05-06 18:24 | 52.95846 | -3.16828 | 13755 ft | 388 kts | 1° |
| 2026-05-06 18:25 | 52.98531 | -3.16637 | 12998 ft | 383 kts | 1° |
| 2026-05-06 18:25 | 53.01172 | -3.16444 | 12307 ft | 377 kts | 1° |
| 2026-05-06 18:25 | 53.03739 | -3.15866 | 11644 ft | 372 kts | 14° |
| 2026-05-06 18:25 | 53.06045 | -3.14025 | 11089 ft | 366 kts | 35° |
| 2026-05-06 18:26 | 53.07771 | -3.11015 | 10728 ft | 355 kts | 56° |
| 2026-05-06 18:26 | 53.08885 | -3.07425 | 10320 ft | 345 kts | 65° |
| 2026-05-06 18:26 | 53.09492 | -3.05016 | 10148 ft | 335 kts | 67° |
| 2026-05-06 18:26 | 53.10346 | -3.01513 | 9936 ft | 321 kts | 67° |
| 2026-05-06 18:27 | 53.11168 | -2.98135 | 9752 ft | 308 kts | 67° |
| 2026-05-06 18:27 | 53.11960 | -2.94903 | 9553 ft | 296 kts | 67° |
| 2026-05-06 18:27 | 53.12736 | -2.91750 | 9155 ft | 293 kts | 67° |
| 2026-05-06 18:27 | 53.13512 | -2.88619 | 8769 ft | 291 kts | 67° |
| 2026-05-06 18:28 | 53.14504 | -2.84588 | 8026 ft | 280 kts | 67° |
| 2026-05-06 18:28 | 53.15007 | -2.82560 | 7501 ft | 280 kts | 67° |